createdAt,value
2019-06-20T00:01:52.399Z,2.00
2019-06-20T00:04:18.775Z,2.07
2019-06-20T00:06:45.466Z,2.10
2019-06-20T00:09:12.101Z,1.87
2019-06-20T00:11:38.852Z,1.97
2019-06-20T00:14:05.605Z,1.90
2019-06-20T00:16:31.923Z,2.00
2019-06-20T00:18:58.215Z,2.50
2019-06-20T00:21:24.481Z,2.00
2019-06-20T00:23:50.771Z,1.70
2019-06-20T00:26:17.380Z,1.70
2019-06-20T00:28:44.083Z,1.83
2019-06-20T00:31:10.550Z,1.60
2019-06-20T00:33:36.968Z,1.60
2019-06-20T00:36:03.754Z,2.00
2019-06-20T00:38:30.177Z,2.03
2019-06-20T00:40:57.911Z,2.00
2019-06-20T00:43:25.391Z,1.97
2019-06-20T00:45:51.750Z,1.70
2019-06-20T00:48:18.139Z,1.83
2019-06-20T00:50:45.506Z,2.17
2019-06-20T00:53:12.206Z,1.80
2019-06-20T00:55:38.591Z,1.90
2019-06-20T00:58:05.103Z,1.90
2019-06-20T01:00:31.585Z,2.13
2019-06-20T01:02:58.049Z,2.10
2019-06-20T01:05:24.848Z,1.90
2019-06-20T01:07:51.107Z,1.90
2019-06-20T01:10:17.518Z,2.20
2019-06-20T01:12:57.326Z,2.03
2019-06-20T01:15:23.718Z,2.27
2019-06-20T01:17:50.099Z,2.37
2019-06-20T01:20:17.011Z,2.90
2019-06-20T01:22:43.655Z,2.67
2019-06-20T01:25:10.902Z,2.77
2019-06-20T01:27:37.370Z,2.37
2019-06-20T01:30:07.987Z,2.00
2019-06-20T01:32:34.650Z,2.10
2019-06-20T01:35:01.221Z,2.20
2019-06-20T01:37:27.595Z,2.10
2019-06-20T01:39:53.999Z,2.30
2019-06-20T01:42:21.707Z,2.17
2019-06-20T01:44:48.070Z,2.37
2019-06-20T01:47:14.366Z,2.20
2019-06-20T01:49:40.728Z,2.30
2019-06-20T01:52:07.133Z,2.43
2019-06-20T01:54:33.851Z,2.30
2019-06-20T01:57:00.247Z,2.30
2019-06-20T01:59:26.834Z,2.00
2019-06-20T02:01:53.437Z,2.30
2019-06-20T02:04:20.092Z,2.17
2019-06-20T02:06:46.483Z,2.40
2019-06-20T02:09:13.088Z,2.10
2019-06-20T02:11:39.573Z,2.13
2019-06-20T02:14:07.579Z,2.07
2019-06-20T02:16:34.536Z,2.20
2019-06-20T02:19:01.271Z,2.70
2019-06-20T02:21:27.736Z,2.60
2019-06-20T02:23:54.130Z,2.60
2019-06-20T02:26:20.421Z,2.20
2019-06-20T02:28:47.190Z,2.40
2019-06-20T02:31:13.459Z,2.53
2019-06-20T02:33:53.337Z,2.70
2019-06-20T02:36:19.822Z,2.10
2019-06-20T02:38:46.200Z,2.40
2019-06-20T02:41:12.727Z,2.50
2019-06-20T02:43:39.019Z,2.67
2019-06-20T02:46:05.477Z,2.43
2019-06-20T02:48:32.381Z,2.33
2019-06-20T02:51:01.584Z,2.30
2019-06-20T02:53:28.104Z,2.57
2019-06-20T02:55:54.470Z,2.10
2019-06-20T02:58:20.750Z,2.77
2019-06-20T03:00:51.029Z,2.70
2019-06-20T03:03:17.302Z,2.67
2019-06-20T03:05:43.698Z,2.50
2019-06-20T03:08:10.467Z,2.63
2019-06-20T03:10:36.755Z,2.63
2019-06-20T03:13:04.095Z,2.77
2019-06-20T03:15:30.612Z,2.93
2019-06-20T03:17:57.314Z,2.57
2019-06-20T03:20:24.227Z,3.07
2019-06-20T03:22:50.906Z,2.40
2019-06-20T03:25:19.198Z,2.70
2019-06-20T03:27:45.612Z,2.63
2019-06-20T03:30:12.782Z,3.07
2019-06-20T03:32:39.176Z,2.90
2019-06-20T03:35:06.095Z,2.60
2019-06-20T03:37:32.390Z,2.73
2019-06-20T03:39:58.739Z,2.90
2019-06-20T03:42:25.247Z,3.20
2019-06-20T03:45:01.672Z,2.33
2019-06-20T03:47:19.715Z,2.30
2019-06-20T03:49:45.979Z,2.63
2019-06-20T03:52:12.574Z,3.00
2019-06-20T03:54:38.851Z,2.90
2019-06-20T03:57:05.156Z,2.60
2019-06-20T03:59:31.529Z,2.47
2019-06-20T04:01:57.908Z,2.60
2019-06-20T04:04:27.308Z,2.33
2019-06-20T04:06:54.571Z,2.50
2019-06-20T04:09:20.874Z,2.60
2019-06-20T04:11:47.149Z,2.70
2019-06-20T04:14:13.843Z,2.33
2019-06-20T04:16:40.109Z,2.60
2019-06-20T04:19:06.511Z,2.53
2019-06-20T04:21:33.245Z,2.57
2019-06-20T04:23:59.722Z,3.50
2019-06-20T04:26:26.325Z,2.67
2019-06-20T04:28:52.716Z,2.80
2019-06-20T04:31:18.994Z,2.83
2019-06-20T04:33:45.491Z,2.40
2019-06-20T04:36:11.855Z,2.30
2019-06-20T04:38:38.167Z,2.33
2019-06-20T04:41:04.540Z,2.60
2019-06-20T04:43:30.933Z,2.43
2019-06-20T04:46:02.210Z,2.60
2019-06-20T04:48:28.608Z,2.37
2019-06-20T04:50:55.282Z,2.33
2019-06-20T04:53:21.897Z,2.27
2019-06-20T04:55:48.270Z,2.60
2019-06-20T04:58:14.739Z,2.27
2019-06-20T05:00:41.130Z,2.03
2019-06-20T05:03:07.508Z,2.07
2019-06-20T05:05:34.007Z,2.40
2019-06-20T05:08:00.472Z,2.07
2019-06-20T05:10:26.768Z,2.30
2019-06-20T05:12:55.965Z,1.90
2019-06-20T05:15:21.353Z,2.40
2019-06-20T05:17:47.915Z,1.93
2019-06-20T05:20:15.696Z,2.23
2019-06-20T05:22:41.963Z,1.93
2019-06-20T05:25:09.358Z,1.73
2019-06-20T05:27:35.814Z,1.80
2019-06-20T05:30:11.210Z,1.87
2019-06-20T05:32:37.578Z,1.73
2019-06-20T05:35:04.479Z,1.70
2019-06-20T05:37:30.877Z,1.60
2019-06-20T05:39:57.247Z,1.80
2019-06-20T05:42:23.548Z,1.80
2019-06-20T05:44:49.910Z,1.77
2019-06-20T05:47:16.478Z,2.00
2019-06-20T05:49:43.950Z,1.43
2019-06-20T05:52:10.612Z,1.73
2019-06-20T05:54:36.890Z,1.70
2019-06-20T05:57:04.737Z,1.90
2019-06-20T05:59:31.212Z,1.70
2019-06-20T06:01:57.504Z,1.90
2019-06-20T06:04:23.863Z,1.60
2019-06-20T06:06:50.154Z,1.97
2019-06-20T06:09:16.420Z,2.07
2019-06-20T06:11:42.924Z,2.00
2019-06-20T06:14:09.515Z,2.10
2019-06-20T06:16:36.316Z,1.73
2019-06-20T06:19:03.004Z,1.70
2019-06-20T06:21:30.103Z,1.80
2019-06-20T06:23:56.448Z,1.63
2019-06-20T06:26:22.879Z,1.73
2019-06-20T06:28:50.347Z,1.70
2019-06-20T06:31:16.958Z,1.70
2019-06-20T06:33:43.252Z,1.87
2019-06-20T06:36:09.637Z,1.80
2019-06-20T06:38:36.010Z,2.00
2019-06-20T06:41:02.336Z,2.07
2019-06-20T06:43:28.699Z,1.87
2019-06-20T06:45:54.991Z,1.70
2019-06-20T06:48:21.512Z,1.60
2019-06-20T06:50:48.112Z,1.77
2019-06-20T06:53:14.649Z,1.67
2019-06-20T06:55:40.941Z,1.93
2019-06-20T06:58:07.314Z,1.77
2019-06-20T07:00:33.666Z,2.13
2019-06-20T07:03:00.195Z,2.30
2019-06-20T07:05:26.675Z,2.70
2019-06-20T07:07:53.079Z,2.30
2019-06-20T07:10:20.021Z,3.00
2019-06-20T07:12:46.771Z,2.87
2019-06-20T07:15:15.421Z,2.67
2019-06-20T07:17:42.198Z,2.47
2019-06-20T07:20:15.119Z,2.53
2019-06-20T07:22:40.687Z,2.80
2019-06-20T07:25:07.559Z,3.00
2019-06-20T07:27:34.235Z,3.13
2019-06-20T07:30:00.507Z,2.93
2019-06-20T07:32:27.252Z,3.10
2019-06-20T07:34:53.860Z,2.87
2019-06-20T07:37:20.344Z,2.90
2019-06-20T07:39:46.789Z,3.40
2019-06-20T07:42:13.483Z,3.20
2019-06-20T07:44:40.312Z,3.50
2019-06-20T07:47:17.210Z,3.70
2019-06-20T07:49:35.408Z,3.17
2019-06-20T07:52:01.835Z,3.70
2019-06-20T07:54:28.551Z,3.27
2019-06-20T07:56:55.120Z,3.00
2019-06-20T07:59:22.363Z,3.43
2019-06-20T08:01:48.952Z,3.50
2019-06-20T08:04:15.802Z,3.40
2019-06-20T08:06:42.076Z,3.33
2019-06-20T08:09:09.350Z,3.30
2019-06-20T08:11:35.835Z,3.17
2019-06-20T08:14:02.958Z,2.73
2019-06-20T08:16:29.843Z,2.73
2019-06-20T08:18:56.281Z,2.93
2019-06-20T08:21:22.687Z,3.17
2019-06-20T08:23:49.391Z,3.40
2019-06-20T08:26:16.235Z,3.70
2019-06-20T08:28:42.735Z,3.77
2019-06-20T08:31:09.148Z,3.23
2019-06-20T08:33:36.167Z,3.00
2019-06-20T08:36:04.500Z,2.40
2019-06-20T08:38:31.234Z,2.50
2019-06-20T08:40:58.476Z,2.50
2019-06-20T08:43:25.010Z,2.30
2019-06-20T08:45:51.323Z,2.30
2019-06-20T08:48:18.174Z,2.10
2019-06-20T08:50:44.825Z,2.70
2019-06-20T08:53:11.653Z,2.03
2019-06-20T08:55:38.659Z,1.77
2019-06-20T08:58:05.603Z,2.17
2019-06-20T09:00:34.587Z,2.40
2019-06-20T09:03:04.068Z,1.87
2019-06-20T09:05:30.822Z,1.90
2019-06-20T09:07:59.044Z,1.90
2019-06-20T09:10:40.532Z,2.00
2019-06-20T09:13:08.987Z,2.13
2019-06-20T09:15:36.372Z,1.70
2019-06-20T09:18:03.391Z,2.00
2019-06-20T09:20:30.683Z,2.23
2019-06-20T09:22:58.925Z,2.07
2019-06-20T09:25:25.602Z,1.93
2019-06-20T09:27:53.284Z,2.00
2019-06-20T09:30:43.345Z,2.10
2019-06-20T09:33:10.183Z,2.00
2019-06-20T09:35:37.008Z,2.17
2019-06-20T09:38:03.794Z,2.10
2019-06-20T09:40:30.706Z,1.73
2019-06-20T09:42:58.378Z,2.20
2019-06-20T09:45:25.623Z,1.87
2019-06-20T09:47:52.393Z,2.03
2019-06-20T09:50:21.363Z,2.12
2019-06-20T09:52:49.800Z,1.98
2019-06-20T09:55:16.319Z,2.10
2019-06-20T09:57:42.767Z,2.35
2019-06-20T10:00:15.786Z,1.90
2019-06-20T10:02:42.729Z,1.85
2019-06-20T10:05:10.003Z,1.40
2019-06-20T10:07:36.556Z,1.65
2019-06-20T10:10:06.200Z,1.70
2019-06-20T10:12:32.482Z,1.85
2019-06-20T10:14:58.843Z,1.70
2019-06-20T10:17:25.138Z,1.70
2019-06-20T10:19:52.054Z,1.63
2019-06-20T10:22:18.839Z,1.73
2019-06-20T10:24:46.345Z,1.90
2019-06-20T10:27:13.664Z,1.60
2019-06-20T10:29:40.260Z,1.70
2019-06-20T10:32:06.719Z,1.77
2019-06-20T10:34:33.190Z,2.03
2019-06-20T10:37:00.129Z,1.73
2019-06-20T10:39:26.922Z,1.90
2019-06-20T10:41:53.283Z,1.43
2019-06-20T10:44:20.763Z,1.60
2019-06-20T10:47:00.553Z,1.73
2019-06-20T10:49:27.043Z,1.83
2019-06-20T10:51:53.643Z,1.53
2019-06-20T10:54:20.191Z,1.60
2019-06-20T10:56:47.157Z,1.57
2019-06-20T10:59:13.879Z,1.50
2019-06-20T11:01:41.590Z,1.90
2019-06-20T11:04:09.189Z,1.60
2019-06-20T11:06:36.125Z,1.60
2019-06-20T11:09:06.411Z,1.70
2019-06-20T11:11:32.879Z,1.70
2019-06-20T11:13:59.708Z,1.70
2019-06-20T11:16:26.796Z,1.60
2019-06-20T11:18:53.499Z,1.57
2019-06-20T11:21:19.891Z,1.80
2019-06-20T11:23:47.421Z,1.70
2019-06-20T11:26:13.978Z,1.80
2019-06-20T11:28:41.426Z,1.80
2019-06-20T11:31:08.459Z,1.80
2019-06-20T11:33:36.585Z,1.70
2019-06-20T11:36:03.860Z,1.80
2019-06-20T11:38:30.615Z,1.50
2019-06-20T11:40:57.567Z,2.00
2019-06-20T11:43:24.402Z,1.87
2019-06-20T11:45:51.474Z,1.80
2019-06-20T11:48:17.859Z,1.90
2019-06-20T11:50:44.258Z,1.50
2019-06-20T11:53:10.794Z,1.70
2019-06-20T11:55:37.136Z,1.50
2019-06-20T11:58:03.771Z,1.60
2019-06-20T12:00:30.491Z,1.67
2019-06-20T12:02:56.787Z,1.87
2019-06-20T12:05:23.266Z,1.77
2019-06-20T12:07:50.147Z,1.90
2019-06-20T12:10:17.546Z,1.57
2019-06-20T12:12:44.755Z,1.70
2019-06-20T12:15:11.988Z,1.30
2019-06-20T12:17:40.882Z,1.40
2019-06-20T12:20:08.508Z,1.10
2019-06-20T12:22:34.891Z,1.40
2019-06-20T12:25:01.759Z,1.30
2019-06-20T12:27:28.243Z,1.20
2019-06-20T12:29:54.658Z,1.23
2019-06-20T12:32:21.105Z,1.00
2019-06-20T12:34:49.040Z,1.17
2019-06-20T12:37:15.550Z,1.20
2019-06-20T12:39:42.298Z,1.30
2019-06-20T12:42:08.671Z,1.27
2019-06-20T12:44:38.450Z,1.60
2019-06-20T12:47:05.310Z,1.60
2019-06-20T12:49:31.714Z,1.27
2019-06-20T12:51:58.075Z,1.42
2019-06-20T12:54:24.720Z,1.40
2019-06-20T12:56:51.476Z,1.37
2019-06-20T12:59:18.009Z,1.12
2019-06-20T13:01:47.778Z,1.55
2019-06-20T13:04:12.903Z,1.20
2019-06-20T13:06:40.477Z,1.37
2019-06-20T13:09:07.187Z,1.30
2019-06-20T13:11:33.663Z,1.27
2019-06-20T13:14:00.307Z,1.50
2019-06-20T13:16:27.004Z,1.47
2019-06-20T13:18:53.376Z,1.30
2019-06-20T13:21:20.108Z,1.30
2019-06-20T13:23:47.248Z,1.40
2019-06-20T13:26:14.028Z,1.50
2019-06-20T13:28:58.882Z,1.65
2019-06-20T13:31:08.495Z,1.40
2019-06-20T13:33:39.091Z,1.67
2019-06-20T13:36:05.388Z,1.50
2019-06-20T13:38:31.842Z,2.10
2019-06-20T13:40:58.137Z,1.40
2019-06-20T13:43:24.628Z,1.47
2019-06-20T13:45:52.164Z,1.50
2019-06-20T13:48:19.040Z,1.27
2019-06-20T13:50:45.890Z,1.50
2019-06-20T13:53:12.542Z,1.37
2019-06-20T13:55:39.468Z,1.50
2019-06-20T13:58:07.426Z,1.40
2019-06-20T14:00:34.361Z,1.50
2019-06-20T14:03:01.230Z,1.40
2019-06-20T14:05:27.740Z,1.50
2019-06-20T14:07:55.999Z,1.40
2019-06-20T14:10:22.615Z,1.60
2019-06-20T14:12:49.227Z,1.30
2019-06-20T14:15:16.019Z,1.30
2019-06-20T14:17:43.201Z,1.40
2019-06-20T14:20:10.670Z,1.50
2019-06-20T14:22:37.323Z,1.33
2019-06-20T14:25:05.427Z,1.50
2019-06-20T14:27:35.014Z,1.10
2019-06-20T14:30:00.396Z,1.00
2019-06-20T14:32:26.886Z,1.17
2019-06-20T14:34:54.336Z,1.27
2019-06-20T14:37:20.794Z,1.40
2019-06-20T14:39:47.201Z,1.20
2019-06-20T14:42:13.486Z,1.30
2019-06-20T14:44:39.909Z,1.40
2019-06-20T14:47:06.442Z,1.23
2019-06-20T14:49:32.886Z,1.40
2019-06-20T14:51:59.150Z,1.17
2019-06-20T14:54:25.576Z,1.43
2019-06-20T14:56:52.050Z,1.23
2019-06-20T14:59:18.471Z,1.67
2019-06-20T15:01:46.303Z,1.40
2019-06-20T15:04:12.851Z,1.50
2019-06-20T15:06:39.227Z,1.67
2019-06-20T15:09:06.690Z,1.67
2019-06-20T15:11:35.287Z,1.40
2019-06-20T15:14:01.991Z,1.40
2019-06-20T15:16:30.069Z,1.67
2019-06-20T15:18:57.285Z,2.00
2019-06-20T15:21:23.862Z,1.53
2019-06-20T15:23:51.278Z,1.60
2019-06-20T15:26:18.686Z,1.60
2019-06-20T15:28:46.241Z,1.50
2019-06-20T15:31:13.163Z,1.57
2019-06-20T15:33:39.639Z,1.80
2019-06-20T15:36:06.026Z,1.70
2019-06-20T15:38:32.304Z,1.80
2019-06-20T15:40:58.791Z,1.90
2019-06-20T15:43:25.489Z,2.00
2019-06-20T15:45:52.161Z,1.87
2019-06-20T15:48:18.952Z,2.20
2019-06-20T15:50:45.364Z,2.20
2019-06-20T15:53:11.810Z,1.90
2019-06-20T15:55:38.087Z,2.20
2019-06-20T15:58:04.416Z,1.90
2019-06-20T16:00:31.239Z,1.97
2019-06-20T16:03:09.358Z,1.77
2019-06-20T16:05:25.983Z,2.10
2019-06-20T16:07:52.381Z,1.47
2019-06-20T16:10:18.955Z,1.87
2019-06-20T16:12:45.545Z,1.80
2019-06-20T16:15:18.631Z,2.00
2019-06-20T16:17:45.023Z,1.90
2019-06-20T16:20:11.707Z,1.90
2019-06-20T16:22:38.545Z,2.20
2019-06-20T16:25:05.927Z,2.43
2019-06-20T16:27:32.670Z,2.50
2019-06-20T16:29:59.053Z,2.30
2019-06-20T16:32:25.351Z,3.20
2019-06-20T16:34:52.162Z,2.53
2019-06-20T16:37:18.543Z,2.50
2019-06-20T16:39:44.926Z,3.50
2019-06-20T16:42:11.283Z,3.73
2019-06-20T16:44:37.676Z,3.83
2019-06-20T16:47:04.255Z,3.67
2019-06-20T16:49:31.652Z,3.23
2019-06-20T16:51:58.043Z,4.13
2019-06-20T16:54:24.364Z,4.23
2019-06-20T16:56:50.819Z,4.33
2019-06-20T16:59:17.113Z,4.10
2019-06-20T17:01:43.399Z,4.93
2019-06-20T17:04:09.983Z,5.00
2019-06-20T17:06:36.246Z,4.93
2019-06-20T17:09:05.667Z,5.33
2019-06-20T17:11:32.522Z,5.53
2019-06-20T17:13:58.820Z,6.27
2019-06-20T17:16:25.291Z,6.23
2019-06-20T17:18:51.711Z,5.53
2019-06-20T17:21:18.316Z,5.87
2019-06-20T17:23:44.684Z,5.10
2019-06-20T17:26:11.079Z,5.70
2019-06-20T17:28:37.358Z,5.30
2019-06-20T17:31:04.123Z,5.27
2019-06-20T17:33:30.538Z,5.80
2019-06-20T17:35:57.001Z,6.20
2019-06-20T17:38:23.442Z,6.40
2019-06-20T17:40:49.845Z,6.83
2019-06-20T17:43:16.214Z,6.37
2019-06-20T17:45:42.936Z,6.53
2019-06-20T17:48:09.303Z,6.37
2019-06-20T17:50:36.030Z,6.43
2019-06-20T17:53:02.701Z,5.47
2019-06-20T17:55:30.291Z,5.87
2019-06-20T17:57:57.973Z,5.57
2019-06-20T18:00:24.996Z,5.83
2019-06-20T18:02:51.676Z,5.47
2019-06-20T18:05:18.703Z,5.53
2019-06-20T18:07:45.455Z,5.67
2019-06-20T18:10:14.123Z,6.03
2019-06-20T18:12:40.863Z,5.57
2019-06-20T18:15:07.547Z,6.37
2019-06-20T18:17:33.956Z,6.03
2019-06-20T18:20:00.492Z,6.40
2019-06-20T18:22:27.054Z,6.27
2019-06-20T18:24:53.427Z,6.67
2019-06-20T18:27:19.845Z,6.33
2019-06-20T18:29:46.224Z,6.77
2019-06-20T18:32:12.748Z,6.07
2019-06-20T18:34:40.275Z,6.00
2019-06-20T18:37:06.688Z,5.67
2019-06-20T18:39:33.070Z,5.80
2019-06-20T18:41:59.545Z,5.47
2019-06-20T18:44:26.257Z,5.07
2019-06-20T18:46:52.707Z,5.57
2019-06-20T18:49:19.086Z,5.17
2019-06-20T18:51:45.876Z,5.10
2019-06-20T18:54:25.183Z,4.70
2019-06-20T18:56:51.557Z,4.07
2019-06-20T18:59:18.193Z,4.83
2019-06-20T19:01:44.802Z,4.03
2019-06-20T19:04:11.674Z,4.60
2019-06-20T19:06:38.049Z,4.50
2019-06-20T19:09:07.264Z,4.40
2019-06-20T19:11:33.956Z,3.53
2019-06-20T19:14:00.403Z,3.70
2019-06-20T19:16:27.238Z,3.97
2019-06-20T19:18:53.764Z,3.70
2019-06-20T19:21:20.171Z,3.67
2019-06-20T19:23:46.543Z,3.73
2019-06-20T19:26:13.237Z,4.10
2019-06-20T19:28:39.635Z,3.90
2019-06-20T19:31:06.221Z,4.40
2019-06-20T19:33:32.647Z,3.93
2019-06-20T19:35:59.491Z,3.50
2019-06-20T19:38:25.982Z,3.30
2019-06-20T19:40:52.640Z,3.10
2019-06-20T19:43:19.502Z,3.23
2019-06-20T19:45:47.123Z,3.27
2019-06-20T19:48:13.606Z,3.17
2019-06-20T19:50:40.591Z,2.73
2019-06-20T19:53:07.303Z,3.37
2019-06-20T19:55:34.085Z,3.17
2019-06-20T19:58:00.647Z,3.03
2019-06-20T20:00:27.018Z,3.03
2019-06-20T20:02:53.829Z,3.10
2019-06-20T20:05:20.627Z,2.90
2019-06-20T20:07:47.119Z,3.20
2019-06-20T20:10:15.915Z,2.63
2019-06-20T20:12:42.306Z,2.60
2019-06-20T20:15:08.989Z,3.00
2019-06-20T20:17:35.774Z,2.70
2019-06-20T20:20:05.019Z,3.17
2019-06-20T20:22:31.781Z,2.43
2019-06-20T20:24:58.162Z,2.63
2019-06-20T20:27:24.552Z,2.43
2019-06-20T20:29:51.068Z,2.53
2019-06-20T20:32:17.464Z,2.53
2019-06-20T20:34:44.135Z,2.50
2019-06-20T20:37:10.552Z,2.50
2019-06-20T20:39:37.234Z,2.37
2019-06-20T20:42:04.495Z,2.37
2019-06-20T20:44:30.775Z,2.57
2019-06-20T20:46:57.068Z,2.60
2019-06-20T20:49:23.429Z,2.90
2019-06-20T20:51:49.790Z,2.60
2019-06-20T20:54:16.238Z,2.37
2019-06-20T20:56:42.886Z,2.40
2019-06-20T20:59:09.175Z,2.67
2019-06-20T21:01:35.883Z,2.47
2019-06-20T21:04:02.858Z,2.67
2019-06-20T21:06:29.535Z,2.97
2019-06-20T21:08:56.466Z,2.33
2019-06-20T21:11:22.952Z,2.77
2019-06-20T21:13:49.366Z,2.23
2019-06-20T21:16:15.896Z,3.03
2019-06-20T21:18:42.359Z,3.20
2019-06-20T21:21:08.943Z,2.70
2019-06-20T21:23:35.591Z,2.47
2019-06-20T21:26:02.009Z,2.67
2019-06-20T21:28:28.426Z,2.70
2019-06-20T21:30:54.740Z,3.27
2019-06-20T21:33:21.470Z,2.93
2019-06-20T21:35:48.474Z,2.87
2019-06-20T21:38:14.859Z,3.33
2019-06-20T21:40:41.557Z,3.83
2019-06-20T21:43:07.822Z,4.03
2019-06-20T21:45:34.239Z,3.60
2019-06-20T21:48:01.143Z,3.90
2019-06-20T21:50:27.509Z,2.93
2019-06-20T21:52:53.795Z,3.40
2019-06-20T21:55:20.454Z,3.40
2019-06-20T21:57:46.839Z,3.30
2019-06-20T22:00:38.168Z,3.50
2019-06-20T22:03:07.814Z,2.97
2019-06-20T22:05:34.310Z,2.73
2019-06-20T22:08:00.862Z,2.80
2019-06-20T22:10:27.403Z,3.27
2019-06-20T22:12:53.805Z,3.20
2019-06-20T22:15:20.485Z,3.00
2019-06-20T22:17:46.959Z,3.27
2019-06-20T22:20:14.156Z,2.73
2019-06-20T22:22:40.548Z,2.73
2019-06-20T22:25:07.830Z,2.97
2019-06-20T22:27:34.732Z,3.30
2019-06-20T22:30:03.842Z,3.17
2019-06-20T22:32:29.425Z,2.97
2019-06-20T22:34:55.974Z,3.10
2019-06-20T22:37:22.658Z,3.90
2019-06-20T22:39:49.036Z,3.53
2019-06-20T22:42:15.519Z,3.30
2019-06-20T22:44:41.787Z,3.63
2019-06-20T22:47:08.330Z,3.60
2019-06-20T22:49:34.614Z,3.47
2019-06-20T22:52:01.776Z,3.50
2019-06-20T22:54:28.086Z,3.53
2019-06-20T22:56:54.695Z,3.50
2019-06-20T22:59:21.018Z,3.63
2019-06-20T23:01:47.537Z,3.90
2019-06-20T23:04:14.114Z,4.00
2019-06-20T23:06:55.253Z,4.30
2019-06-20T23:09:09.294Z,3.57
2019-06-20T23:11:36.050Z,3.70
2019-06-20T23:14:02.506Z,3.23
2019-06-20T23:16:28.795Z,3.40
2019-06-20T23:18:55.075Z,3.33
2019-06-20T23:21:21.673Z,3.53
2019-06-20T23:24:01.532Z,3.27
2019-06-20T23:26:27.927Z,3.00
2019-06-20T23:29:13.131Z,3.13
2019-06-20T23:31:39.531Z,3.50
2019-06-20T23:34:06.195Z,3.50
2019-06-20T23:36:32.593Z,3.63
2019-06-20T23:38:59.006Z,3.20
2019-06-20T23:41:25.361Z,3.67
2019-06-20T23:43:51.672Z,3.67
2019-06-20T23:46:18.039Z,4.23
2019-06-20T23:48:44.432Z,4.63
2019-06-20T23:51:24.684Z,4.00
2019-06-20T23:53:39.204Z,4.20
2019-06-20T23:56:07.942Z,4.57
2019-06-20T23:58:34.951Z,4.10
